Aviation Digital Data Service (ADDS)

Output produced by METARs form (0600 UTC 24 May 2017)
found at http://aviationweather.gov/adds/metars/
 
KAUG 240523Z 2406/2506 00000KT P6SM SCT120 OVC200 
     FM241200 VRB03KT P6SM SCT120 OVC200 
     FM241900 18004KT P6SM SCT050 BKN250 
     FM250000 VRB03KT P6SM SCT250